Time;durP1;ratioP1;P1;durP2;ratioP2;P2;SDS_P1;SDS_P2;PMS_P1;PMS_P2;Temp;Humidity;BMP_temperature;BMP_pressure;BME280_temperature;BME280_humidity;BME280_pressure;Samples;Min_cycle;Max_cycle;Signal;HPM_P1;HPM_P2
2022/01/14 00:00:55;;;;;;;70.63;27.77;;;5.90;99.90;;;;;;4783650;29;20047;-69
2022/01/14 00:03:21;;;;;;;73.30;27.45;;;6.00;99.90;;;;;;4784242;29;20433;-68
2022/01/14 00:05:47;;;;;;;84.18;30.63;;;6.00;99.90;;;;;;4786194;29;20050;-68
2022/01/14 00:08:12;;;;;;;77.90;29.88;;;6.10;99.90;;;;;;4783435;29;20051;-70
2022/01/14 00:10:40;;;;;;;82.22;29.60;;;6.00;99.90;;;;;;4783331;29;20058;-68
2022/01/14 00:13:16;;;;;;;87.75;30.50;;;5.90;99.90;;;;;;4784606;29;20048;-68
2022/01/14 00:15:41;;;;;;;84.07;31.15;;;5.90;99.90;;;;;;4784642;29;20090;-68
2022/01/14 00:18:07;;;;;;;111.88;32.45;;;5.90;99.90;;;;;;4782803;29;20078;-68
2022/01/14 00:20:33;;;;;;;103.72;32.00;;;5.90;99.90;;;;;;4784586;29;20051;-68
2022/01/14 00:23:00;;;;;;;95.43;30.80;;;5.80;99.90;;;;;;4783274;29;20047;-68
2022/01/14 00:33:33;;;;;;;100.10;30.23;;;5.80;99.90;;;;;;4781161;29;20116;-68
2022/01/14 00:35:58;;;;;;;101.40;29.10;;;5.80;99.90;;;;;;4782759;29;20039;-68
2022/01/14 00:38:24;;;;;;;79.63;29.52;;;5.80;99.90;;;;;;4784452;29;20172;-68
2022/01/14 00:40:51;;;;;;;81.30;29.23;;;5.80;99.90;;;;;;4783824;29;20047;-68
2022/01/14 00:43:16;;;;;;;80.35;29.52;;;5.80;99.90;;;;;;4782556;29;20075;-68
2022/01/14 00:45:42;;;;;;;104.07;30.17;;;5.90;99.90;;;;;;4782744;29;20055;-68
2022/01/14 00:48:08;;;;;;;112.95;30.85;;;5.80;99.90;;;;;;4784505;29;20092;-68
2022/01/14 00:50:34;;;;;;;97.75;30.73;;;5.70;99.90;;;;;;4783149;29;20193;-68
2022/01/14 00:53:00;;;;;;;110.80;32.45;;;5.70;99.90;;;;;;4782714;29;20582;-68
2022/01/14 00:55:29;;;;;;;79.25;29.92;;;5.70;99.90;;;;;;4784267;29;20051;-68
2022/01/14 01:00:30;;;;;;;88.25;30.77;;;5.70;99.90;;;;;;4784646;29;20062;-68
2022/01/14 01:02:56;;;;;;;81.85;28.25;;;5.70;99.90;;;;;;4783747;29;20436;-68
2022/01/14 01:05:22;;;;;;;91.07;31.40;;;5.70;99.90;;;;;;4783002;29;20047;-68
2022/01/14 01:07:58;;;;;;;92.57;30.23;;;5.70;99.90;;;;;;4783167;29;20039;-68
2022/01/14 01:10:24;;;;;;;86.60;30.02;;;5.80;99.90;;;;;;4784285;29;20075;-68
2022/01/14 01:12:54;;;;;;;128.93;34.05;;;5.80;99.90;;;;;;4782008;29;20036;-68
2022/01/14 01:15:20;;;;;;;115.97;34.35;;;5.80;99.90;;;;;;4783479;29;20154;-68
2022/01/14 01:17:47;;;;;;;106.13;31.55;;;5.90;99.90;;;;;;4783665;29;20093;-68
2022/01/14 01:20:17;;;;;;;86.20;29.83;;;5.80;99.90;;;;;;4782339;29;20115;-68
2022/01/14 01:22:49;;;;;;;111.82;31.35;;;5.80;99.90;;;;;;4767408;29;20070;-68
2022/01/14 01:25:18;;;;;;;85.50;30.95;;;5.70;99.90;;;;;;4783405;29;20083;-68
2022/01/14 01:27:46;;;;;;;83.63;29.17;;;5.80;99.90;;;;;;4783469;29;20047;-68
2022/01/14 01:30:37;;;;;;;86.05;29.27;;;5.80;99.90;;;;;;4783876;29;20406;-68
2022/01/14 01:33:00;;;;;;;110.57;30.88;;;5.70;99.90;;;;;;4783604;29;20552;-68
2022/01/14 01:35:26;;;;;;;83.78;29.17;;;5.80;99.90;;;;;;4780914;29;20069;-69
2022/01/14 01:37:52;;;;;;;70.95;27.90;;;5.90;99.90;;;;;;4782536;29;20084;-68
2022/01/14 01:40:20;;;;;;;74.88;27.52;;;5.80;99.90;;;;;;4781713;29;20043;-68
2022/01/14 01:42:46;;;;;;;69.03;25.15;;;5.80;99.90;;;;;;4781687;29;20078;-68
2022/01/14 01:45:15;;;;;;;73.30;25.85;;;5.80;99.90;;;;;;4781021;29;20050;-68
2022/01/14 01:47:42;;;;;;;68.57;26.25;;;5.80;99.90;;;;;;4782775;29;20050;-68
2022/01/14 01:50:15;;;;;;;70.97;25.52;;;5.80;99.90;;;;;;4781852;29;20067;-68
2022/01/14 01:52:41;;;;;;;67.82;24.45;;;5.80;99.90;;;;;;4782589;29;20039;-68
2022/01/14 01:55:08;;;;;;;65.57;24.02;;;5.90;99.90;;;;;;4781628;29;20039;-68
2022/01/14 01:57:35;;;;;;;71.63;23.08;;;5.80;99.90;;;;;;4781202;29;20043;-68
2022/01/14 02:00:01;;;;;;;61.67;23.20;;;5.80;99.90;;;;;;4782790;29;20046;-68
2022/01/14 02:02:28;;;;;;;84.53;23.55;;;5.80;99.90;;;;;;4783025;29;20043;-68
2022/01/14 02:04:54;;;;;;;63.15;22.70;;;5.80;99.90;;;;;;4782609;29;20050;-68
2022/01/14 02:07:20;;;;;;;56.00;21.65;;;5.80;99.90;;;;;;4781966;29;20059;-69
2022/01/14 02:09:45;;;;;;;52.63;21.35;;;5.80;99.90;;;;;;4780686;29;20047;-68
2022/01/14 02:12:11;;;;;;;55.97;22.33;;;5.80;99.90;;;;;;4782816;29;20042;-68
2022/01/14 02:14:54;;;;;;;48.95;20.48;;;5.80;99.90;;;;;;4782939;29;20047;-69
2022/01/14 02:17:45;;;;;;;49.72;20.92;;;5.90;99.90;;;;;;4780828;29;20054;-68
2022/01/14 02:23:01;;;;;;;54.10;20.15;;;5.80;99.90;;;;;;4782186;29;20096;-68
2022/01/14 02:25:30;;;;;;;52.58;21.45;;;5.80;99.90;;;;;;4781998;29;20500;-68
2022/01/14 02:28:07;;;;;;;57.72;21.90;;;5.80;99.90;;;;;;4781563;29;20122;-68
2022/01/14 02:30:36;;;;;;;58.80;21.65;;;5.80;99.90;;;;;;4782344;29;20074;-68
2022/01/14 02:33:02;;;;;;;63.08;21.92;;;5.80;99.90;;;;;;4782061;29;20079;-68
2022/01/14 02:35:28;;;;;;;54.05;21.50;;;5.80;99.90;;;;;;4765890;29;20046;-68
2022/01/14 02:37:55;;;;;;;55.10;23.05;;;5.80;99.90;;;;;;4779830;29;20043;-68
2022/01/14 02:40:21;;;;;;;65.15;22.90;;;5.80;99.90;;;;;;4781271;29;20366;-68
2022/01/14 02:42:48;;;;;;;62.50;23.63;;;5.80;99.90;;;;;;4780818;29;20050;-68
2022/01/14 02:45:15;;;;;;;74.65;24.48;;;5.80;99.90;;;;;;4780171;29;20057;-68
2022/01/14 02:47:42;;;;;;;69.57;26.33;;;5.80;99.90;;;;;;4782131;29;20066;-68
2022/01/14 02:50:12;;;;;;;75.88;26.52;;;5.90;99.90;;;;;;4782960;29;20055;-68
2022/01/14 02:55:22;;;;;;;83.90;26.10;;;5.90;99.90;;;;;;4781771;29;20084;-68
2022/01/14 02:57:53;;;;;;;72.22;25.33;;;5.80;99.90;;;;;;4782487;29;20063;-69
2022/01/14 03:00:21;;;;;;;71.22;24.63;;;5.80;99.90;;;;;;4784959;29;20400;-68
2022/01/14 03:02:50;;;;;;;79.20;24.67;;;5.70;99.90;;;;;;4784910;29;20044;-69
2022/01/14 03:05:18;;;;;;;76.13;25.35;;;5.80;99.90;;;;;;4785727;29;20040;-68
2022/01/14 03:07:45;;;;;;;71.35;24.48;;;5.70;99.90;;;;;;4787247;29;20449;-69
2022/01/14 03:10:12;;;;;;;70.70;24.75;;;5.70;99.90;;;;;;4786029;29;20047;-68
2022/01/14 03:12:39;;;;;;;72.50;25.27;;;5.80;99.90;;;;;;4770128;29;20079;-68
2022/01/14 03:15:06;;;;;;;79.35;25.35;;;5.70;99.90;;;;;;4786152;29;20393;-69
2022/01/14 03:17:32;;;;;;;78.90;25.27;;;5.70;99.90;;;;;;4785159;29;20447;-68
2022/01/14 03:20:00;;;;;;;64.47;23.75;;;5.70;99.90;;;;;;4785324;29;20043;-68
2022/01/14 03:22:34;;;;;;;60.40;23.55;;;5.80;99.90;;;;;;4784769;29;20051;-68
2022/01/14 03:27:45;;;;;;;74.70;24.25;;;5.60;99.90;;;;;;4784458;29;20093;-68
2022/01/14 03:30:12;;;;;;;65.00;22.90;;;5.60;99.90;;;;;;4785971;29;20082;-69
2022/01/14 03:32:39;;;;;;;58.38;21.67;;;5.60;99.90;;;;;;4785229;29;20039;-69
2022/01/14 03:35:06;;;;;;;69.25;22.25;;;5.60;99.90;;;;;;4784352;29;20130;-68
2022/01/14 03:37:32;;;;;;;56.97;22.77;;;5.60;99.90;;;;;;4785149;29;20043;-68
2022/01/14 03:39:58;;;;;;;63.47;23.67;;;5.60;99.90;;;;;;4783279;29;20047;-68
2022/01/14 03:42:23;;;;;;;64.18;23.63;;;5.60;99.90;;;;;;4783353;29;20063;-68
2022/01/14 03:44:49;;;;;;;60.40;23.77;;;5.60;99.90;;;;;;4783614;29;20067;-68
2022/01/14 03:47:15;;;;;;;97.88;28.63;;;5.80;99.90;;;;;;4784398;29;20508;-68
2022/01/14 03:49:40;;;;;;;61.88;25.75;;;5.60;99.90;;;;;;4784075;29;20109;-68
2022/01/14 03:52:06;;;;;;;60.67;24.60;;;5.90;99.90;;;;;;4782066;29;20465;-68
2022/01/14 03:54:32;;;;;;;68.65;25.38;;;5.60;99.90;;;;;;4782527;29;20043;-68
2022/01/14 03:56:58;;;;;;;76.15;26.17;;;5.60;99.90;;;;;;4783497;29;20043;-68
2022/01/14 03:59:23;;;;;;;111.03;27.35;;;5.60;99.90;;;;;;4784044;29;20058;-68
2022/01/14 04:01:49;;;;;;;69.65;24.83;;;5.60;99.90;;;;;;4781523;29;20126;-68
2022/01/14 04:04:15;;;;;;;55.70;24.77;;;5.60;99.90;;;;;;4783866;29;20100;-68
2022/01/14 04:06:40;;;;;;;69.88;25.95;;;5.60;99.90;;;;;;4783381;29;20047;-68
2022/01/14 04:09:06;;;;;;;115.32;29.17;;;5.60;99.90;;;;;;4785265;29;20439;-68
2022/01/14 04:11:33;;;;;;;79.28;25.77;;;5.60;99.90;;;;;;4782779;29;20050;-68
2022/01/14 04:16:46;;;;;;;68.10;24.33;;;5.60;99.90;;;;;;4745589;29;20047;-68
2022/01/14 04:19:12;;;;;;;58.00;25.08;;;5.60;99.90;;;;;;4783175;29;20066;-69
2022/01/14 04:21:37;;;;;;;63.25;25.15;;;5.60;99.90;;;;;;4783575;29;20062;-68
2022/01/14 04:24:03;;;;;;;75.10;25.45;;;5.60;99.90;;;;;;4781871;29;20055;-68
2022/01/14 04:26:29;;;;;;;78.85;25.58;;;5.50;99.90;;;;;;4782250;29;20393;-68
2022/01/14 04:28:55;;;;;;;68.65;23.77;;;5.50;99.90;;;;;;4783671;29;20055;-68
2022/01/14 04:31:20;;;;;;;62.95;24.38;;;5.50;99.90;;;;;;4782221;29;20043;-68
2022/01/14 04:33:46;;;;;;;84.22;26.52;;;5.50;99.90;;;;;;4782699;29;20096;-68
2022/01/14 04:36:12;;;;;;;64.45;23.67;;;5.60;99.90;;;;;;4782101;29;20043;-69
2022/01/14 04:38:37;;;;;;;61.08;24.38;;;5.50;99.90;;;;;;4783649;29;20047;-68
2022/01/14 04:41:04;;;;;;;59.45;22.98;;;5.50;99.90;;;;;;4782257;29;20134;-68
2022/01/14 04:43:30;;;;;;;57.92;21.63;;;5.60;99.90;;;;;;4780924;29;20112;-68
2022/01/14 04:48:25;;;;;;;50.15;20.75;;;5.50;99.90;;;;;;4782306;29;20066;-68
2022/01/14 04:50:52;;;;;;;59.22;22.17;;;5.60;99.90;;;;;;4781595;29;20043;-68
2022/01/14 04:53:18;;;;;;;66.20;23.50;;;5.50;99.90;;;;;;4780864;29;20126;-68
2022/01/14 04:55:44;;;;;;;59.28;21.58;;;5.50;99.90;;;;;;4781746;29;20060;-68
2022/01/14 04:58:09;;;;;;;55.00;21.45;;;5.60;99.90;;;;;;4783481;29;20039;-68
2022/01/14 05:00:37;;;;;;;79.85;21.52;;;5.60;99.90;;;;;;4784327;29;20043;-68
2022/01/14 05:03:03;;;;;;;58.10;22.33;;;5.60;99.90;;;;;;4783952;29;20663;-68
2022/01/14 05:05:33;;;;;;;61.08;21.35;;;5.60;99.90;;;;;;4783833;29;20130;-68
2022/01/14 05:07:59;;;;;;;55.03;20.05;;;5.60;99.90;;;;;;4797814;29;20047;-69
2022/01/14 05:12:51;;;;;;;61.88;22.05;;;5.60;99.90;;;;;;4782111;29;20062;-68
2022/01/14 05:15:18;;;;;;;62.03;21.58;;;5.60;99.90;;;;;;4782257;29;20572;-68
2022/01/14 05:17:45;;;;;;;55.60;20.35;;;5.60;99.90;;;;;;4782618;29;20122;-68
2022/01/14 05:20:12;;;;;;;63.40;21.90;;;5.70;99.90;;;;;;4783042;29;20050;-68
2022/01/14 05:22:38;;;;;;;57.13;21.50;;;5.60;99.90;;;;;;4781766;29;20047;-68
2022/01/14 05:25:06;;;;;;;57.40;21.77;;;5.70;99.90;;;;;;4782737;29;20050;-68
2022/01/14 05:27:32;;;;;;;62.30;20.67;;;5.60;99.90;;;;;;4782601;29;20481;-68
2022/01/14 05:29:58;;;;;;;69.22;22.30;;;5.60;99.90;;;;;;4782769;29;20043;-68
2022/01/14 05:32:24;;;;;;;59.38;19.77;;;5.60;99.90;;;;;;4782876;29;20166;-68
2022/01/14 05:34:50;;;;;;;55.47;21.58;;;5.60;99.90;;;;;;4782150;29;20508;-68
2022/01/14 05:37:16;;;;;;;69.03;23.00;;;5.60;99.90;;;;;;4784147;29;20035;-68
2022/01/14 05:39:42;;;;;;;74.93;24.45;;;5.60;99.90;;;;;;4782902;29;20050;-69
2022/01/14 05:42:08;;;;;;;64.88;22.80;;;5.60;99.90;;;;;;4782924;29;20049;-68
2022/01/14 05:44:34;;;;;;;60.97;22.88;;;5.60;99.90;;;;;;4781628;29;20086;-68
2022/01/14 05:47:00;;;;;;;65.90;22.73;;;5.80;99.90;;;;;;4782152;29;20051;-68
2022/01/14 05:49:27;;;;;;;63.88;22.52;;;5.60;99.90;;;;;;4781280;29;20051;-68
2022/01/14 05:51:53;;;;;;;62.85;22.58;;;5.70;99.90;;;;;;4782494;29;20166;-68
2022/01/14 05:54:20;;;;;;;53.38;21.50;;;5.60;99.90;;;;;;4781737;29;20172;-68
2022/01/14 05:56:46;;;;;;;52.45;22.25;;;5.70;99.90;;;;;;4780771;29;20120;-68
2022/01/14 05:59:12;;;;;;;66.97;24.80;;;5.60;99.90;;;;;;4778978;29;20445;-68
2022/01/14 06:01:39;;;;;;;59.30;22.73;;;6.80;99.90;;;;;;4782176;29;20062;-68
2022/01/14 06:04:05;;;;;;;54.33;20.55;;;5.70;99.90;;;;;;4781117;29;20073;-68
2022/01/14 06:06:32;;;;;;;55.55;22.27;;;5.70;99.90;;;;;;4781668;29;20495;-68
2022/01/14 06:08:58;;;;;;;60.88;23.05;;;5.60;99.90;;;;;;4782865;29;20470;-68
2022/01/14 06:11:25;;;;;;;62.75;23.95;;;5.70;99.90;;;;;;4781200;29;20058;-68
2022/01/14 06:13:51;;;;;;;59.92;23.70;;;5.70;99.90;;;;;;4782821;29;20504;-69
2022/01/14 06:16:16;;;;;;;56.03;22.50;;;5.70;99.90;;;;;;4784722;29;20074;-69
2022/01/14 06:18:43;;;;;;;57.28;22.63;;;5.70;99.90;;;;;;4782960;29;20146;-69
2022/01/14 06:21:10;;;;;;;59.03;23.45;;;5.70;99.90;;;;;;4781463;29;20143;-69
2022/01/14 06:23:36;;;;;;;60.28;22.48;;;5.80;99.90;;;;;;4782753;29;21272;-68
2022/01/14 06:26:02;;;;;;;48.85;22.45;;;5.70;99.90;;;;;;4782474;29;20059;-68
2022/01/14 06:28:28;;;;;;;56.72;23.30;;;5.70;99.90;;;;;;4781015;29;20051;-68
2022/01/14 06:30:54;;;;;;;53.80;22.77;;;5.70;99.90;;;;;;4781803;29;20092;-68
2022/01/14 06:33:19;;;;;;;56.63;22.55;;;5.70;99.90;;;;;;4785075;29;20138;-68
2022/01/14 06:35:45;;;;;;;50.20;21.73;;;5.70;99.90;;;;;;4786662;29;20043;-68
2022/01/14 06:38:11;;;;;;;47.70;22.23;;;5.70;99.90;;;;;;4786200;29;20059;-68
2022/01/14 06:40:38;;;;;;;49.13;21.95;;;5.70;99.90;;;;;;4785324;29;20054;-68
2022/01/14 06:43:04;;;;;;;51.45;22.48;;;5.70;99.90;;;;;;4785238;29;20043;-68
2022/01/14 06:45:31;;;;;;;50.55;21.73;;;5.70;99.90;;;;;;4784529;29;20471;-68
2022/01/14 06:47:57;;;;;;;44.70;21.77;;;5.70;99.90;;;;;;4783294;29;20055;-68
2022/01/14 06:50:23;;;;;;;35.47;18.55;;;5.70;99.90;;;;;;4784721;29;20169;-69
2022/01/14 06:52:50;;;;;;;44.88;20.25;;;5.70;99.90;;;;;;4784412;29;20054;-68
2022/01/14 06:55:16;;;;;;;40.45;19.90;;;5.70;99.90;;;;;;4785992;29;20031;-68
2022/01/14 06:57:41;;;;;;;37.72;19.25;;;5.70;99.90;;;;;;4786513;29;20047;-69
2022/01/14 07:00:11;;;;;;;37.38;19.38;;;5.70;99.90;;;;;;4783574;29;20216;-69
2022/01/14 07:02:37;;;;;;;41.38;19.45;;;5.70;99.90;;;;;;4782866;29;20047;-68
2022/01/14 07:05:04;;;;;;;34.80;18.67;;;5.70;99.90;;;;;;4783654;29;20043;-68
2022/01/14 07:07:30;;;;;;;33.30;17.70;;;5.80;99.90;;;;;;4783789;29;20059;-68
2022/01/14 07:09:56;;;;;;;36.83;19.67;;;5.80;99.90;;;;;;4784556;29;20043;-68
2022/01/14 07:12:37;;;;;;;41.42;19.40;;;5.80;99.90;;;;;;4785951;29;20042;-68
2022/01/14 07:15:12;;;;;;;32.47;18.15;;;5.90;99.90;;;;;;4782410;29;20054;-68
2022/01/14 07:17:38;;;;;;;36.22;19.80;;;5.80;99.90;;;;;;4780375;29;20652;-68
2022/01/14 07:20:08;;;;;;;35.20;19.30;;;5.70;99.90;;;;;;4783579;29;20043;-68
2022/01/14 07:22:34;;;;;;;32.20;18.23;;;5.80;99.90;;;;;;4784276;29;20601;-68
2022/01/14 07:25:01;;;;;;;32.08;20.10;;;5.80;99.90;;;;;;4784630;29;20047;-68
2022/01/14 07:27:27;;;;;;;37.90;19.65;;;5.90;99.90;;;;;;4784066;29;20134;-68
2022/01/14 07:29:53;;;;;;;35.88;18.33;;;5.80;99.90;;;;;;4785315;29;20051;-68
2022/01/14 07:32:19;;;;;;;34.28;18.75;;;5.80;99.90;;;;;;4784536;29;20047;-68
2022/01/14 07:34:45;;;;;;;37.13;18.88;;;5.80;99.90;;;;;;4783833;29;20074;-68
2022/01/14 07:37:11;;;;;;;37.03;18.98;;;6.10;99.90;;;;;;4784538;29;20085;-68
2022/01/14 07:39:37;;;;;;;38.53;18.75;;;6.00;99.90;;;;;;4784924;29;20084;-68
2022/01/14 07:42:04;;;;;;;36.40;19.55;;;5.90;99.90;;;;;;4783374;29;20051;-68
2022/01/14 07:44:30;;;;;;;30.52;17.98;;;5.90;99.90;;;;;;4782991;29;20577;-68
2022/01/14 07:46:55;;;;;;;38.60;19.38;;;6.00;99.90;;;;;;4784446;29;20066;-68
2022/01/14 07:49:21;;;;;;;34.92;18.02;;;6.00;99.90;;;;;;4782607;29;20074;-68
2022/01/14 07:51:47;;;;;;;31.85;18.35;;;5.90;99.90;;;;;;4784423;29;20497;-68
2022/01/14 07:54:12;;;;;;;36.75;18.90;;;5.90;99.90;;;;;;4784047;29;20071;-68
2022/01/14 07:56:48;;;;;;;33.17;19.90;;;5.90;99.90;;;;;;4783348;29;20058;-68
2022/01/14 07:59:16;;;;;;;37.47;19.75;;;5.90;99.90;;;;;;4784737;29;20541;-68
2022/01/14 08:01:43;;;;;;;34.97;18.88;;;6.00;99.90;;;;;;4782789;29;20050;-69
2022/01/14 08:04:09;;;;;;;37.60;19.10;;;6.10;99.90;;;;;;4782201;29;20171;-68
2022/01/14 08:06:39;;;;;;;30.98;17.77;;;6.00;99.90;;;;;;4781978;29;20058;-68
2022/01/14 08:09:05;;;;;;;37.95;18.33;;;6.00;99.90;;;;;;4783697;29;20039;-68
2022/01/14 08:11:30;;;;;;;34.58;19.05;;;6.00;99.90;;;;;;4783380;29;20600;-68
2022/01/14 08:13:56;;;;;;;33.22;18.13;;;6.00;99.90;;;;;;4784348;29;20085;-68
2022/01/14 08:16:22;;;;;;;34.80;18.33;;;6.00;99.90;;;;;;4781963;29;20051;-68
2022/01/14 08:18:48;;;;;;;43.35;19.67;;;6.00;99.90;;;;;;4783472;29;20066;-68
2022/01/14 08:21:16;;;;;;;35.95;18.20;;;6.00;99.90;;;;;;4784315;29;20488;-68
2022/01/14 08:23:42;;;;;;;33.20;17.92;;;6.00;99.90;;;;;;4782443;29;20066;-68
2022/01/14 08:26:08;;;;;;;32.17;18.25;;;6.10;99.90;;;;;;4783761;29;20464;-68
2022/01/14 08:28:34;;;;;;;27.95;16.38;;;6.10;99.90;;;;;;4782118;29;20071;-69
2022/01/14 08:31:00;;;;;;;32.42;16.75;;;6.10;99.90;;;;;;4783615;29;20137;-68
2022/01/14 08:33:25;;;;;;;36.58;17.35;;;6.10;99.90;;;;;;4784082;29;20112;-68
2022/01/14 08:35:51;;;;;;;34.08;17.60;;;6.10;99.90;;;;;;4784587;29;20066;-68
2022/01/14 08:38:17;;;;;;;34.13;17.55;;;6.10;99.90;;;;;;4781864;29;20050;-68
2022/01/14 08:40:43;;;;;;;35.30;16.80;;;6.20;99.90;;;;;;4780131;29;20134;-70
2022/01/14 08:43:08;;;;;;;34.30;17.70;;;6.20;99.90;;;;;;4780778;29;20066;-69
2022/01/14 08:45:34;;;;;;;32.25;17.75;;;6.20;99.90;;;;;;4781709;29;20063;-69
2022/01/14 08:48:01;;;;;;;34.55;16.73;;;6.20;99.90;;;;;;4784049;29;20118;-69
2022/01/14 08:50:29;;;;;;;29.95;16.80;;;6.20;99.90;;;;;;4783657;29;21458;-69
2022/01/14 08:52:56;;;;;;;36.65;16.63;;;6.30;99.90;;;;;;4780317;29;20047;-69
2022/01/14 08:55:22;;;;;;;30.42;16.15;;;6.30;99.90;;;;;;4781777;29;20134;-69
2022/01/14 08:57:48;;;;;;;35.30;16.95;;;6.30;99.90;;;;;;4782173;29;20512;-70
2022/01/14 09:00:18;;;;;;;32.78;16.08;;;6.30;99.90;;;;;;4782176;29;20100;-69
2022/01/14 09:02:44;;;;;;;30.60;16.02;;;6.30;99.90;;;;;;4783858;29;20626;-68
2022/01/14 09:05:10;;;;;;;23.95;14.23;;;6.30;99.90;;;;;;4783363;29;20242;-68
2022/01/14 09:07:37;;;;;;;35.92;15.23;;;6.30;99.90;;;;;;4784001;29;20054;-68
2022/01/14 09:10:05;;;;;;;28.42;14.75;;;6.40;99.90;;;;;;4784521;29;20138;-69
2022/01/14 09:12:32;;;;;;;31.27;14.75;;;6.40;99.90;;;;;;4782794;29;20062;-68
2022/01/14 09:14:59;;;;;;;34.60;16.25;;;6.60;99.90;;;;;;4784154;29;20039;-68
2022/01/14 09:17:25;;;;;;;28.90;14.25;;;6.40;99.90;;;;;;4783787;29;20052;-68
2022/01/14 09:19:51;;;;;;;26.52;14.68;;;6.40;99.90;;;;;;4782392;29;20054;-69
2022/01/14 09:22:18;;;;;;;33.10;15.65;;;6.50;99.90;;;;;;4782359;29;20055;-69
2022/01/14 09:24:45;;;;;;;30.88;14.07;;;6.50;99.90;;;;;;4783057;29;20107;-69
2022/01/14 09:27:13;;;;;;;23.25;13.45;;;6.50;99.90;;;;;;4784651;29;20955;-69
2022/01/14 09:29:39;;;;;;;33.78;14.55;;;6.60;99.90;;;;;;4782254;29;20619;-69
2022/01/14 09:32:05;;;;;;;31.63;14.43;;;6.60;99.90;;;;;;4783539;29;20047;-69
2022/01/14 09:34:32;;;;;;;24.13;12.93;;;6.60;99.90;;;;;;4783840;29;20118;-69
2022/01/14 09:36:58;;;;;;;31.75;13.98;;;6.70;99.90;;;;;;4783116;29;20558;-69
2022/01/14 09:39:24;;;;;;;27.77;12.85;;;6.70;99.90;;;;;;4781967;29;20055;-69
2022/01/14 09:41:50;;;;;;;31.77;13.30;;;6.60;99.90;;;;;;4781874;29;20050;-69
2022/01/14 09:44:17;;;;;;;29.23;15.20;;;6.70;99.90;;;;;;4783573;29;20380;-68
2022/01/14 09:46:43;;;;;;;32.47;12.43;;;6.70;99.90;;;;;;4783070;29;20074;-68
2022/01/14 09:49:09;;;;;;;27.13;14.05;;;6.80;99.90;;;;;;4783398;29;20381;-69
2022/01/14 09:51:34;;;;;;;32.75;12.05;;;6.80;99.90;;;;;;4782865;29;20092;-68
2022/01/14 09:54:02;;;;;;;25.92;11.20;;;7.00;99.90;;;;;;4784114;29;20055;-68
2022/01/14 09:56:28;;;;;;;27.95;11.00;;;6.90;99.90;;;;;;4783268;29;20614;-68
2022/01/14 09:58:53;;;;;;;30.10;11.15;;;6.90;99.90;;;;;;4783737;29;20054;-69
2022/01/14 10:01:22;;;;;;;22.67;10.65;;;6.90;99.90;;;;;;4783121;29;20083;-68
2022/01/14 10:03:49;;;;;;;30.67;11.30;;;7.00;99.90;;;;;;4784325;29;20062;-68
2022/01/14 10:06:44;;;;;;;21.08;10.05;;;7.00;99.90;;;;;;4783028;29;20054;-68
2022/01/14 10:09:23;;;;;;;22.40;10.30;;;7.00;99.90;;;;;;4783251;29;20059;-68
2022/01/14 10:12:13;;;;;;;21.90;9.13;;;7.00;99.90;;;;;;4782249;29;20047;-68
2022/01/14 10:14:43;;;;;;;24.58;9.98;;;7.00;99.90;;;;;;4782520;29;20116;-69
2022/01/14 10:17:10;;;;;;;18.85;9.30;;;7.10;99.90;;;;;;4780776;29;20051;-69
2022/01/14 10:19:40;;;;;;;21.73;9.88;;;7.10;99.90;;;;;;4783154;29;20134;-69
2022/01/14 10:22:21;;;;;;;23.65;8.90;;;7.10;99.90;;;;;;4784501;29;20055;-69
2022/01/14 10:25:10;;;;;;;27.23;10.43;;;7.30;99.90;;;;;;4781280;29;20047;-70
2022/01/14 10:27:42;;;;;;;26.00;9.43;;;7.10;99.90;;;;;;4781438;29;20200;-70
2022/01/14 10:30:11;;;;;;;31.15;9.90;;;7.20;99.90;;;;;;4782364;29;20069;-70
2022/01/14 10:32:38;;;;;;;26.00;9.75;;;7.20;99.90;;;;;;4782127;29;20040;-70
2022/01/14 10:35:10;;;;;;;25.20;9.40;;;7.20;99.90;;;;;;4766255;29;20594;-71
2022/01/14 10:37:36;;;;;;;17.00;8.93;;;7.20;99.90;;;;;;4766291;29;20373;-70
2022/01/14 10:40:13;;;;;;;20.90;8.00;;;7.30;99.90;;;;;;4780218;29;20055;-70
2022/01/14 10:42:40;;;;;;;15.55;7.47;;;7.20;99.90;;;;;;4780842;29;20047;-70
2022/01/14 10:45:22;;;;;;;19.35;7.80;;;7.30;99.90;;;;;;4781666;29;20082;-70
2022/01/14 10:48:03;;;;;;;18.70;6.93;;;7.30;99.90;;;;;;4780546;29;20089;-70
2022/01/14 10:50:39;;;;;;;15.68;6.97;;;7.30;99.90;;;;;;4780223;29;20127;-69
2022/01/14 10:53:16;;;;;;;18.33;7.60;;;7.30;99.90;;;;;;4779178;29;20055;-68
2022/01/14 10:55:43;;;;;;;;;;;7.40;99.90;;;;;;4780727;29;20035;-70
2022/01/14 10:58:16;;;;;;;16.92;6.60;;;7.40;99.90;;;;;;4780492;29;19933;-70
2022/01/14 11:00:48;;;;;;;18.27;7.38;;;7.40;99.90;;;;;;4780309;29;20047;-70
2022/01/14 11:03:15;;;;;;;17.00;6.65;;;7.40;99.90;;;;;;4780704;29;20064;-69
2022/01/14 11:05:42;;;;;;;17.00;6.65;;;7.50;99.90;;;;;;4780590;29;20135;-70
2022/01/14 11:08:08;;;;;;;16.55;6.63;;;7.50;99.90;;;;;;4779531;29;20059;-70
2022/01/14 11:10:36;;;;;;;15.85;6.20;;;7.70;99.90;;;;;;4782246;29;20050;-70
2022/01/14 11:13:06;;;;;;;13.95;6.47;;;7.50;99.90;;;;;;4781250;29;20058;-69
2022/01/14 11:15:33;;;;;;;14.80;6.50;;;7.50;99.90;;;;;;4779224;29;20051;-69
2022/01/14 11:18:02;;;;;;;15.77;6.10;;;7.50;99.90;;;;;;4779941;29;20773;-69
2022/01/14 11:20:36;;;;;;;12.20;6.53;;;7.60;99.90;;;;;;4783569;29;20058;-69
2022/01/14 11:23:14;;;;;;;15.07;6.25;;;7.60;99.90;;;;;;4784649;29;20047;-69
2022/01/14 11:26:07;;;;;;;15.77;6.05;;;7.50;99.90;;;;;;4784159;29;20505;-69
2022/01/14 11:28:38;;;;;;;19.85;6.32;;;7.70;99.90;;;;;;4783783;29;20053;-69
2022/01/14 11:31:33;;;;;;;16.20;6.05;;;7.60;99.90;;;;;;4784506;29;20155;-70
2022/01/14 11:34:02;;;;;;;12.48;5.90;;;7.60;99.90;;;;;;4782656;29;20122;-69
2022/01/14 11:36:52;;;;;;;19.80;6.22;;;7.70;99.90;;;;;;4783117;29;20083;-69
2022/01/14 11:39:19;;;;;;;15.77;6.05;;;7.70;99.90;;;;;;4784936;29;20389;-69
2022/01/14 11:41:51;;;;;;;19.42;7.32;;;7.70;99.90;;;;;;4782667;29;20055;-69
2022/01/14 11:44:43;;;;;;;18.75;7.65;;;7.70;99.90;;;;;;4783759;29;20070;-69
2022/01/14 11:47:38;;;;;;;24.30;8.60;;;7.70;99.90;;;;;;4776969;29;20063;-69
2022/01/14 11:50:07;;;;;;;19.58;6.88;;;7.70;99.90;;;;;;4782379;29;20540;-69
2022/01/14 11:52:33;;;;;;;15.48;5.60;;;7.60;99.90;;;;;;4782820;29;20540;-69
2022/01/14 11:55:00;;;;;;;12.85;5.35;;;7.60;99.90;;;;;;4783783;29;20096;-70
2022/01/14 11:57:45;;;;;;;15.00;4.72;;;7.60;99.90;;;;;;4784151;29;20058;-70
2022/01/14 12:00:26;;;;;;;9.38;4.90;;;7.60;99.90;;;;;;4781961;29;20078;-70
2022/01/14 12:02:55;;;;;;;12.20;4.28;;;7.60;99.90;;;;;;4780598;29;20047;-70
2022/01/14 12:05:26;;;;;;;13.13;4.82;;;7.60;99.90;;;;;;4782570;29;20062;-70
2022/01/14 12:08:01;;;;;;;11.77;4.20;;;7.50;99.90;;;;;;4782019;29;20082;-70
2022/01/14 12:10:32;;;;;;;11.80;4.63;;;7.50;99.90;;;;;;4783644;29;20070;-70
2022/01/14 12:16:03;;;;;;;12.32;5.45;;;7.60;99.90;;;;;;4783250;29;20134;-70
2022/01/14 12:19:02;;;;;;;13.40;4.45;;;7.50;99.90;;;;;;4782743;29;20057;-70
2022/01/14 12:21:50;;;;;;;14.52;5.45;;;7.50;99.90;;;;;;4783802;29;20055;-69
2022/01/14 12:24:18;;;;;;;16.70;5.05;;;7.50;99.90;;;;;;4783319;29;20054;-70
2022/01/14 12:27:09;;;;;;;14.65;4.90;;;7.60;99.90;;;;;;4784068;29;20392;-70
2022/01/14 12:29:40;;;;;;;12.20;4.85;;;7.70;99.90;;;;;;4781043;29;20146;-69
2022/01/14 12:32:18;;;;;;;16.00;5.07;;;7.60;99.90;;;;;;4782032;29;20677;-70
2022/01/14 12:34:56;;;;;;;14.18;4.15;;;7.60;99.90;;;;;;4785146;29;20067;-70
2022/01/14 12:37:44;;;;;;;13.45;4.13;;;7.60;99.90;;;;;;4781134;29;20047;-69
2022/01/14 12:40:17;;;;;;;14.95;4.60;;;7.60;99.90;;;;;;4774236;29;20451;-69
2022/01/14 12:43:00;;;;;;;11.75;3.70;;;7.50;99.90;;;;;;4784541;29;20051;-69
2022/01/14 12:45:41;;;;;;;13.57;4.20;;;7.60;99.90;;;;;;4780143;29;20055;-69
2022/01/14 12:48:17;;;;;;;9.18;3.92;;;7.50;99.90;;;;;;4782549;29;20059;-69
2022/01/14 12:50:45;;;;;;;9.07;3.53;;;7.50;99.90;;;;;;4782810;29;20180;-69
2022/01/14 12:53:18;;;;;;;12.32;4.10;;;7.50;99.90;;;;;;4782789;29;20051;-69
2022/01/14 12:55:44;;;;;;;13.52;4.15;;;7.60;99.90;;;;;;4782564;29;20043;-69
2022/01/14 12:58:11;;;;;;;9.52;3.88;;;7.50;99.90;;;;;;4766584;29;20193;-69
2022/01/14 13:00:37;;;;;;;12.98;3.97;;;7.50;99.90;;;;;;4781009;29;20130;-69
2022/01/14 13:03:11;;;;;;;13.30;4.30;;;7.50;99.90;;;;;;4779301;29;20489;-69
2022/01/14 13:05:36;;;;;;;13.85;4.38;;;7.60;99.90;;;;;;4780276;29;20059;-70
2022/01/14 13:08:02;;;;;;;10.90;4.00;;;7.50;99.90;;;;;;4781899;29;20108;-69
2022/01/14 13:10:29;;;;;;;10.05;3.83;;;7.50;99.90;;;;;;4780869;29;20158;-69
2022/01/14 13:12:55;;;;;;;13.13;3.25;;;7.50;99.90;;;;;;4782922;29;20043;-69
2022/01/14 13:15:25;;;;;;;8.32;3.15;;;7.50;99.90;;;;;;4782303;29;20082;-70